Terminal Aerodrome Forecast
Issued by NWS Wilmington, OH

Home | Current Version | Previous Version | Text Only | Print | Product List | Glossary On
Versions: 1 2 3 4 5 6 7 8 9 10 11 12 13 14 15 16 17 18 19 20 21 22 23
000
FTUS41 KILN 290537
TAFCVG
TAF
KCVG 290537Z 2906/3012 13004KT P6SM SCT250
     FM291400 21007KT P6SM SCT040 BKN200
     FM300000 18004KT P6SM BKN040 OVC150
      TEMPO 3005/3007 -SHRA BKN030=

USA.gov is the U.S. government's official web portal to all federal, state and local government web resources and services.